createdAt,value
2022-11-05T00:06:21.562Z,999.09
2022-11-05T00:35:32.636Z,999.36
2022-11-05T01:04:36.880Z,999.58
2022-11-05T01:33:47.276Z,999.67
2022-11-05T02:02:52.850Z,999.79
2022-11-05T02:31:46.287Z,1000.1
2022-11-05T03:00:54.849Z,1000.29
2022-11-05T03:30:07.779Z,1000.58
2022-11-05T03:59:18.502Z,1000.94
2022-11-05T04:28:30.429Z,1001.11
2022-11-05T04:57:41.368Z,1001.47
2022-11-05T05:26:49.668Z,1001.83
2022-11-05T05:55:57.142Z,1002.27
2022-11-05T06:25:03.156Z,1002.68
2022-11-05T06:54:06.504Z,1003.06
2022-11-05T07:23:15.903Z,1003.46
2022-11-05T07:52:03.971Z,1003.9
2022-11-05T08:21:14.165Z,1004.23
2022-11-05T08:50:21.117Z,1004.51
2022-11-05T09:19:30.139Z,1004.72
2022-11-05T09:48:38.335Z,1004.89
2022-11-05T10:17:49.434Z,1005.08
2022-11-05T10:47:03.765Z,1005.15
2022-11-05T11:16:15.301Z,1005.15
2022-11-05T11:45:23.231Z,1004.97
2022-11-05T12:14:36.043Z,1005.1
2022-11-05T12:43:47.974Z,1005.02
2022-11-05T13:12:54.550Z,1004.9
2022-11-05T13:41:59.958Z,1004.88
2022-11-05T14:11:00.730Z,1004.88
2022-11-05T14:40:08.768Z,1004.88
2022-11-05T15:09:13.328Z,1004.97
2022-11-05T15:38:19.745Z,1004.93
2022-11-05T16:07:05.293Z,1005.1
2022-11-05T16:36:01.340Z,1005.35
2022-11-05T17:04:49.814Z,1005.54
2022-11-05T17:33:44.741Z,1005.5
2022-11-05T18:02:50.696Z,1005.93
2022-11-05T18:31:48.509Z,1005.99
2022-11-05T19:00:52.845Z,1005.93
2022-11-05T19:29:50.617Z,1005.91
2022-11-05T19:58:27.309Z,1006.04
2022-11-05T20:27:35.248Z,1005.96
2022-11-05T20:56:36.209Z,1006.06
2022-11-05T21:25:39.376Z,1006.1
2022-11-05T21:54:40.625Z,1006.05
2022-11-05T22:23:45.243Z,1006.22
2022-11-05T22:52:44.268Z,1005.97
2022-11-05T23:21:47.555Z,1005.58
2022-11-05T23:50:57.092Z,1005.37
